Atlantic - Newfoundland: Past 24 Hour Conditions

 

Blanc-Sablon Airport

12:00 AM AST 16 September 2014
This table is a summary of hourly weather conditions for the past 24 hours.
Date / Time
(AST)
Wind(knots) Conditions Visibility(km) Pressure(kPa) Air tempC) Relative humidity(%) Dew pointC)
16 September 2014
0:00 SW 14 Fog 10 100.9 11 92 9
15 September 2014
23:00 SW 18 gust 24 Cloudy 13 100.9 11 90 9
22:00 SW 16 gust 22 Cloudy 13 101.0 11 91 9
21:00 SSW 14 Cloudy 16 101.1 11 89 10
20:00 SW 15 Light Rain 5 101.1 11 93 10
19:00 SW 13 Light Rain 4 101.2 11 98 11
18:00 ESE 3 Light Rain 2 101.1 11 99 11
17:00 W 3 Light Rain 4 101.2 11 97 11
16:00 SE 11 Light Rain 24 101.2 13 85 11
15:00 SE 12 Cloudy 24 101.3 15 69 9
14:00 SE 11 Cloudy 24 101.4 14 70 9
13:00 SE 13 Cloudy 24 101.5 14 72 9
12:00 SE 15 Cloudy 24 101.6 14 72 9
11:00 ESE 14 gust 20 Cloudy 24 101.6 14 77 10
10:00 ESE 16 gust 22 Cloudy 24 101.7 13 80 9
9:00 ESE 14 Cloudy 24 101.8 12 84 10
8:00 E 13 Cloudy 24 101.8 11 89 10
7:00 E 11 Cloudy 24 101.8 10 92 9
6:00 ENE 10 Cloudy 24 101.9 9 94 9
5:00 NE 11 Cloudy 24 101.9 9 94 8
4:00 ENE 11 Cloudy 19 101.9 9 93 8
3:00 ENE 11 Cloudy 24 101.9 9 92 8
2:00 NE 9 Cloudy 24 101.9 9 92 8
1:00 NE 10 Cloudy 24 101.9 8 92 7
0:00 NE 9 Cloudy 24 102.0 8 90 7
 
Map of Atlantic - Newfoundland marine weather areas Southwestern Grand Banks - 44138 Banquereau - 44139 Tail of the Bank - 44140 Nickerson Bank - 44251 Northeast Burgeo Bank - 44255 Blanc-Sablon Airport Cap Whittle Chevery Natashquan Airport Heath Point Miscou Island Grand Étang Ingonish Beach North Mountain St.Paul Island J.A. Douglas McCurdy Sydney Airport Charlottetown Airport East Point North Cape Argentia Bonavista Burgeo Cape Race Corner Brook Daniel's Harbour Englee Ferolle Point La Scie Port aux Basques Rocky Harbour Sagona Island St. Anthony Airport St. John's Int'l Airport St. Lawrence Stephenville Airport Twillingate Winterland Wreckhouse Cartwright Airport Mary's Harbour Grates Cove Pool's Island Marticot Island Long Pond Îles de la Madeleine Airport
Legend: buoyBuoy land stationLand Station